< < Back
Terminal Aerodrome Forecast


Current Version              Previous Versions:   1  2  3  4  5  6  7  8  9  

Terminal Aerodrome Forecast

533
FTAK31 PAJN 242300
TAFAGS
TAF
PAGS 242323Z 2500/2524 33005KT P6SM VCSH FEW006 OVC045
     FM250300 34005KT P6SM -SHRA BKN035 OVC050
     FM250900 34004KT P6SM VCSH BKN035 OVC050
     FM252000 34006KT P6SM SCT040 BKN060
      AMD NOT SKED=

Latest METAR

015
SAUS70 KWBC 250000
MTRAGS
METAR KAGS 242353Z 00000KT 10SM CLR 14/07 A2999 RMK AO2 SLP156 T01390072
10244 20139 53005


USA.gov is the U.S. government's official web portal to all federal, state and local government web resources and services.